createdAt,value
2018-06-04T00:03:08.839Z,71.40
2018-06-04T00:06:33.651Z,71.50
2018-06-04T00:09:59.251Z,71.40
2018-06-04T00:13:24.056Z,71.90
2018-06-04T00:20:13.226Z,73.10
2018-06-04T00:23:37.879Z,73.50
2018-06-04T00:27:02.767Z,74.00
2018-06-04T00:30:27.669Z,73.60
2018-06-04T00:33:52.466Z,73.30
2018-06-04T00:37:17.398Z,73.50
2018-06-04T00:40:42.207Z,73.90
2018-06-04T00:44:06.950Z,74.40
2018-06-04T00:47:31.706Z,74.90
2018-06-04T00:50:57.066Z,75.50
2018-06-04T00:57:46.447Z,76.80
2018-06-04T01:01:11.194Z,77.20
2018-06-04T01:04:36.128Z,77.60
2018-06-04T01:08:00.978Z,78.00
2018-06-04T01:11:25.729Z,78.20
2018-06-04T01:14:50.457Z,79.10
2018-06-04T01:18:15.216Z,79.30
2018-06-04T01:21:39.906Z,79.60
2018-06-04T01:25:04.827Z,81.40
2018-06-04T01:28:29.649Z,82.70
2018-06-04T01:31:55.727Z,82.70
2018-06-04T01:35:20.727Z,84.00
2018-06-04T01:38:45.771Z,85.30
2018-06-04T01:42:10.780Z,86.30
2018-06-04T01:45:35.631Z,86.70
2018-06-04T01:49:00.471Z,87.10
2018-06-04T01:52:25.645Z,88.10
2018-06-04T01:55:50.459Z,89.20
2018-06-04T01:59:16.323Z,89.90
2018-06-04T02:02:41.241Z,90.40
2018-06-04T02:06:06.125Z,90.80
2018-06-04T02:09:31.435Z,91.50
2018-06-04T02:12:56.431Z,91.90
2018-06-04T02:16:21.257Z,92.40
2018-06-04T02:19:46.225Z,92.80
2018-06-04T02:26:35.609Z,93.40
2018-06-04T02:30:00.450Z,93.90
2018-06-04T02:33:25.207Z,93.90
2018-06-04T02:36:49.999Z,94.20
2018-06-04T02:40:14.812Z,94.30
2018-06-04T02:43:39.616Z,94.40
2018-06-04T02:47:04.555Z,94.50
2018-06-04T02:50:29.351Z,94.70
2018-06-04T02:53:54.074Z,94.70
2018-06-04T02:57:18.870Z,94.80
2018-06-04T03:00:43.637Z,94.80
2018-06-04T03:04:08.412Z,94.90
2018-06-04T03:07:33.205Z,95.00
2018-06-04T03:10:58.046Z,95.20
2018-06-04T03:14:22.922Z,95.20
2018-06-04T03:17:47.634Z,95.10
2018-06-04T03:21:12.373Z,95.00
2018-06-04T03:24:37.145Z,95.00
2018-06-04T03:28:02.008Z,94.90
2018-06-04T03:31:26.727Z,94.70
2018-06-04T03:34:51.584Z,94.20
2018-06-04T03:38:16.245Z,94.00
2018-06-04T03:41:40.932Z,93.60
2018-06-04T03:45:05.814Z,93.60
2018-06-04T03:48:30.531Z,93.60
2018-06-04T03:51:55.172Z,93.40
2018-06-04T03:55:20.064Z,93.40
2018-06-04T03:58:45.143Z,93.50
2018-06-04T04:02:10.062Z,93.40
2018-06-04T04:05:34.876Z,93.20
2018-06-04T04:08:59.646Z,93.20
2018-06-04T04:12:24.303Z,93.00
2018-06-04T04:15:49.080Z,93.00
2018-06-04T04:19:14.032Z,93.10
2018-06-04T04:22:38.864Z,93.30
2018-06-04T04:26:03.766Z,93.40
2018-06-04T04:29:28.553Z,93.00
2018-06-04T04:32:53.174Z,92.80
2018-06-04T04:36:17.992Z,93.10
2018-06-04T04:43:07.106Z,93.60
2018-06-04T04:46:31.840Z,93.40
2018-06-04T04:49:56.573Z,93.40
2018-06-04T04:53:21.500Z,93.40
2018-06-04T04:56:46.194Z,93.40
2018-06-04T05:00:10.992Z,93.20
2018-06-04T05:07:00.220Z,92.70
2018-06-04T05:10:25.244Z,92.40
2018-06-04T05:13:49.983Z,92.00
2018-06-04T05:17:14.910Z,91.90
2018-06-04T05:20:39.593Z,91.90
2018-06-04T05:24:04.645Z,91.40
2018-06-04T05:27:30.134Z,91.20
2018-06-04T05:30:54.849Z,91.20
2018-06-04T05:34:19.673Z,91.20
2018-06-04T05:37:44.661Z,91.10
2018-06-04T05:41:09.443Z,90.80
2018-06-04T05:44:34.250Z,90.90
2018-06-04T05:47:58.871Z,90.60
2018-06-04T05:51:23.848Z,89.60
2018-06-04T05:54:48.623Z,90.00
2018-06-04T05:58:13.508Z,89.40
2018-06-04T06:01:38.620Z,89.50
2018-06-04T06:05:03.365Z,89.10
2018-06-04T06:08:28.123Z,89.00
2018-06-04T06:15:18.472Z,87.20
2018-06-04T06:18:43.299Z,87.30
2018-06-04T06:25:32.674Z,86.70
2018-06-04T06:28:57.584Z,86.10
2018-06-04T06:32:22.398Z,85.70
2018-06-04T06:35:47.184Z,85.60
2018-06-04T06:39:12.088Z,85.90
2018-06-04T06:42:36.819Z,85.10
2018-06-04T06:46:01.589Z,84.70
2018-06-04T06:49:26.404Z,84.90
2018-06-04T06:52:51.113Z,84.00
2018-06-04T06:59:40.097Z,83.00
2018-06-04T07:03:04.767Z,81.80
2018-06-04T07:09:53.907Z,80.70
2018-06-04T07:13:18.554Z,79.50
2018-06-04T07:16:43.262Z,79.70
2018-06-04T07:20:07.900Z,77.50
2018-06-04T07:23:32.777Z,77.90
2018-06-04T07:26:57.511Z,77.10
2018-06-04T07:30:22.931Z,76.40
2018-06-04T07:33:48.049Z,76.80
2018-06-04T07:37:12.723Z,75.70
2018-06-04T07:40:37.419Z,75.70
2018-06-04T07:44:02.356Z,75.00
2018-06-04T07:47:32.138Z,75.30
2018-06-04T07:50:56.861Z,74.20
2018-06-04T07:54:21.695Z,74.20
2018-06-04T07:57:47.441Z,73.40
2018-06-04T08:01:12.231Z,73.80
2018-06-04T08:04:37.140Z,73.40
2018-06-04T08:14:51.830Z,74.30
2018-06-04T08:18:16.851Z,74.00
2018-06-04T08:21:41.697Z,74.00
2018-06-04T08:25:06.566Z,72.90
2018-06-04T08:28:31.676Z,71.90
2018-06-04T08:31:56.418Z,71.40
2018-06-04T08:42:10.133Z,69.30
2018-06-04T08:45:34.978Z,68.90
2018-06-04T08:52:24.350Z,67.70
2018-06-04T08:55:49.014Z,67.60
2018-06-04T08:59:14.209Z,67.30
2018-06-04T09:04:48.182Z,68.60
2018-06-04T09:08:13.197Z,68.00
2018-06-04T09:11:38.475Z,68.00
2018-06-04T09:15:03.174Z,68.30
2018-06-04T09:18:27.813Z,67.90
2018-06-04T09:21:52.566Z,68.60
2018-06-04T09:28:41.547Z,67.40
2018-06-04T09:32:06.392Z,66.30
2018-06-04T09:35:31.096Z,63.70
2018-06-04T09:38:55.796Z,62.80
2018-06-04T09:42:20.653Z,61.80
2018-06-04T09:45:45.895Z,60.90
2018-06-04T09:49:10.698Z,60.20
2018-06-04T09:52:35.493Z,61.10
2018-06-04T09:56:00.116Z,60.50
2018-06-04T09:59:24.856Z,60.00
2018-06-04T10:02:49.452Z,59.40
2018-06-04T10:06:14.120Z,60.00
2018-06-04T10:09:39.414Z,59.70
2018-06-04T10:16:28.569Z,58.90
2018-06-04T10:19:53.291Z,58.50
2018-06-04T10:23:17.988Z,57.10
2018-06-04T10:26:42.694Z,57.90
2018-06-04T10:30:07.567Z,58.20
2018-06-04T10:33:32.855Z,57.50
2018-06-04T10:36:57.655Z,56.20
2018-06-04T10:40:22.590Z,55.50
2018-06-04T10:47:11.731Z,55.00
2018-06-04T10:50:36.425Z,55.50
2018-06-04T10:54:01.132Z,56.20
2018-06-04T10:57:26.459Z,56.20
2018-06-04T11:00:51.450Z,56.00
2018-06-04T11:04:16.194Z,54.80
2018-06-04T11:07:40.955Z,54.90
2018-06-04T11:11:06.382Z,53.60
2018-06-04T11:14:32.163Z,52.30
2018-06-04T11:17:57.110Z,54.30
2018-06-04T11:21:22.048Z,55.60
2018-06-04T11:24:46.816Z,52.70
2018-06-04T11:28:12.649Z,51.70
2018-06-04T11:31:37.920Z,53.60
2018-06-04T11:35:05.018Z,51.70
2018-06-04T11:38:29.811Z,50.20
2018-06-04T11:41:55.510Z,49.60
2018-06-04T11:45:20.806Z,50.30
2018-06-04T11:48:45.451Z,50.70
2018-06-04T11:52:10.246Z,50.20
2018-06-04T11:55:34.960Z,49.20
2018-06-04T11:58:59.674Z,49.10
2018-06-04T12:02:25.938Z,48.20
2018-06-04T12:05:50.775Z,47.10
2018-06-04T12:09:15.542Z,47.80
2018-06-04T12:12:40.286Z,49.40
2018-06-04T12:16:06.190Z,49.30
2018-06-04T12:19:30.941Z,48.20
2018-06-04T12:22:55.604Z,47.20
2018-06-04T12:26:20.240Z,48.90
2018-06-04T12:29:45.032Z,48.10
2018-06-04T12:33:09.710Z,47.80
2018-06-04T12:40:00.084Z,47.70
2018-06-04T12:43:24.844Z,47.20
2018-06-04T12:46:49.478Z,47.30
2018-06-04T12:50:14.330Z,47.30
2018-06-04T12:53:39.064Z,46.80
2018-06-04T13:00:28.030Z,47.30
2018-06-04T13:07:17.126Z,46.00
2018-06-04T13:10:42.898Z,46.70
2018-06-04T13:14:07.899Z,47.10
2018-06-04T13:20:57.886Z,48.30
2018-06-04T13:24:23.603Z,46.70
2018-06-04T13:27:49.151Z,45.90
2018-06-04T13:38:04.104Z,46.40
2018-06-04T13:41:28.803Z,46.60
2018-06-04T13:48:17.950Z,47.40
2018-06-04T13:51:42.681Z,48.50
2018-06-04T13:58:34.648Z,47.70
2018-06-04T14:01:59.326Z,47.90
2018-06-04T14:05:24.019Z,47.30
2018-06-04T14:08:48.696Z,47.70
2018-06-04T14:12:13.362Z,47.80
2018-06-04T14:15:38.136Z,47.80
2018-06-04T14:19:03.154Z,47.70
2018-06-04T14:22:27.983Z,48.50
2018-06-04T14:25:52.862Z,48.20
2018-06-04T14:29:17.590Z,48.60
2018-06-04T14:32:42.407Z,49.10
2018-06-04T14:36:07.115Z,48.20
2018-06-04T14:39:31.981Z,48.70
2018-06-04T14:42:56.754Z,49.70
2018-06-04T14:46:21.518Z,49.30
2018-06-04T14:49:46.255Z,49.70
2018-06-04T14:56:35.364Z,51.00
2018-06-04T15:00:02.174Z,52.50
2018-06-04T15:03:26.856Z,55.50
2018-06-04T15:06:51.588Z,57.80
2018-06-04T15:10:16.369Z,58.40
2018-06-04T15:13:41.058Z,59.20
2018-06-04T15:17:05.830Z,60.70
2018-06-04T15:23:54.786Z,62.00
2018-06-04T15:27:19.511Z,62.50
2018-06-04T15:30:44.212Z,62.50
2018-06-04T15:34:09.711Z,62.80
2018-06-04T15:37:34.952Z,60.70
2018-06-04T15:40:59.536Z,59.50
2018-06-04T15:44:24.213Z,58.20
2018-06-04T15:47:49.046Z,56.90
2018-06-04T15:51:13.698Z,56.10
2018-06-04T15:54:38.402Z,56.70
2018-06-04T15:58:04.213Z,60.40
2018-06-04T16:01:29.439Z,63.40
2018-06-04T16:04:54.136Z,67.60
2018-06-04T16:08:19.197Z,69.80
2018-06-04T16:11:43.900Z,70.70
2018-06-04T16:18:34.010Z,70.90
2018-06-04T16:21:59.439Z,73.80
2018-06-04T16:25:26.999Z,74.20
2018-06-04T16:28:53.311Z,75.20
2018-06-04T16:32:18.345Z,76.50
2018-06-04T16:35:43.233Z,76.30
2018-06-04T16:39:10.524Z,75.90
2018-06-04T16:42:36.832Z,74.50
2018-06-04T16:46:02.209Z,74.40
2018-06-04T16:49:26.964Z,73.10
2018-06-04T16:52:51.726Z,71.60
2018-06-04T16:59:51.793Z,71.10
2018-06-04T17:06:42.056Z,71.90
2018-06-04T17:10:07.498Z,75.20
2018-06-04T17:13:32.317Z,76.80
2018-06-04T17:16:57.741Z,77.50
2018-06-04T17:20:24.471Z,78.80
2018-06-04T17:23:49.493Z,83.30
2018-06-04T17:27:14.385Z,86.40
2018-06-04T17:30:39.192Z,88.00
2018-06-04T17:34:04.350Z,86.90
2018-06-04T17:37:29.974Z,90.10
2018-06-04T17:40:54.983Z,90.50
2018-06-04T17:48:50.464Z,88.50
2018-06-04T17:52:16.413Z,85.20
2018-06-04T17:55:41.374Z,89.50
2018-06-04T17:59:07.512Z,90.80
2018-06-04T18:02:33.214Z,88.60
2018-06-04T18:05:58.138Z,85.60
2018-06-04T18:09:22.916Z,86.20
2018-06-04T18:12:48.524Z,86.00
2018-06-04T18:16:13.359Z,83.00
2018-06-04T18:19:39.015Z,87.10
2018-06-04T18:23:05.377Z,89.70
2018-06-04T18:26:31.126Z,90.30
2018-06-04T18:29:55.931Z,91.60
2018-06-04T18:33:20.866Z,90.20
2018-06-04T18:36:45.759Z,90.90
2018-06-04T18:40:10.684Z,91.00
2018-06-04T18:43:35.596Z,90.50
2018-06-04T18:47:00.584Z,90.10
2018-06-04T18:50:25.399Z,91.60
2018-06-04T18:53:51.508Z,90.50
2018-06-04T18:57:17.607Z,90.70
2018-06-04T19:00:42.923Z,91.80
2018-06-04T19:04:08.542Z,90.20
2018-06-04T19:07:46.544Z,91.10
2018-06-04T19:14:43.740Z,90.10
2018-06-04T19:18:10.934Z,90.70
2018-06-04T19:25:00.186Z,92.20
2018-06-04T19:28:24.980Z,91.60
2018-06-04T19:31:49.818Z,92.20
2018-06-04T19:35:14.616Z,92.10
2018-06-04T19:38:39.372Z,92.00
2018-06-04T19:42:04.163Z,91.60
2018-06-04T19:45:28.970Z,91.60
2018-06-04T19:48:53.761Z,91.70
2018-06-04T19:52:18.558Z,90.70
2018-06-04T19:55:43.562Z,91.00
2018-06-04T19:59:08.386Z,91.80
2018-06-04T20:02:55.549Z,92.90
2018-06-04T20:06:28.808Z,93.20
2018-06-04T20:09:53.747Z,92.80
2018-06-04T20:13:18.600Z,93.00
2018-06-04T20:16:43.491Z,93.10
2018-06-04T20:23:33.738Z,93.70
2018-06-04T20:26:58.417Z,93.00
2018-06-04T20:30:23.186Z,93.50
2018-06-04T20:33:48.005Z,92.60
2018-06-04T20:40:37.108Z,94.30
2018-06-04T20:44:01.821Z,94.80
2018-06-04T20:47:26.817Z,95.10
2018-06-04T20:50:51.713Z,94.90
2018-06-04T20:54:16.491Z,95.10
2018-06-04T20:57:43.768Z,94.90
2018-06-04T21:04:33.165Z,94.20
2018-06-04T21:07:57.959Z,94.40
2018-06-04T21:11:22.969Z,94.20
2018-06-04T21:14:47.798Z,94.30
2018-06-04T21:18:12.765Z,94.40
2018-06-04T21:21:37.560Z,94.10
2018-06-04T21:28:26.980Z,94.60
2018-06-04T21:31:52.003Z,94.80
2018-06-04T21:35:17.006Z,94.80
2018-06-04T21:38:41.945Z,95.10
2018-06-04T21:45:31.424Z,94.80
2018-06-04T21:48:56.211Z,94.40
2018-06-04T21:52:21.004Z,95.10
2018-06-04T21:55:45.802Z,95.40
2018-06-04T22:05:59.746Z,95.20
2018-06-04T22:09:24.641Z,95.40
2018-06-04T22:12:49.510Z,95.60
2018-06-04T22:16:14.310Z,95.40
2018-06-04T22:19:39.064Z,95.70
2018-06-04T22:23:03.683Z,95.20
2018-06-04T22:26:28.465Z,95.80
2018-06-04T22:29:53.510Z,95.90
2018-06-04T22:33:18.348Z,96.00
2018-06-04T22:36:42.970Z,95.60
2018-06-04T22:40:07.796Z,95.70
2018-06-04T22:43:32.533Z,95.70
2018-06-04T22:46:57.391Z,95.80
2018-06-04T22:50:22.308Z,95.20
2018-06-04T22:53:47.112Z,95.30
2018-06-04T22:57:11.862Z,95.60
2018-06-04T23:04:01.148Z,95.60
2018-06-04T23:07:25.933Z,95.70
2018-06-04T23:10:51.876Z,96.00
2018-06-04T23:14:16.626Z,96.60
2018-06-04T23:17:41.512Z,96.90
2018-06-04T23:27:55.259Z,96.50
2018-06-04T23:31:19.984Z,97.10
2018-06-04T23:34:44.787Z,97.50
2018-06-04T23:38:09.492Z,97.70
2018-06-04T23:41:34.266Z,97.90
2018-06-04T23:48:23.669Z,98.10
2018-06-04T23:51:48.546Z,98.50
2018-06-04T23:55:13.820Z,98.40
2018-06-04T23:58:39.108Z,98.80
